createdAt,value
2018-07-25T00:02:02.147Z,69.40
2018-07-25T00:04:30.536Z,70.20
2018-07-25T00:06:58.956Z,69.20
2018-07-25T00:09:27.374Z,69.50
2018-07-25T00:11:55.934Z,69.40
2018-07-25T00:14:24.265Z,70.50
2018-07-25T00:16:53.299Z,69.70
2018-07-25T00:19:21.677Z,70.70
2018-07-25T00:21:50.522Z,69.80
2018-07-25T00:24:18.951Z,69.90
2018-07-25T00:26:47.418Z,70.00
2018-07-25T00:29:15.820Z,69.50
2018-07-25T00:31:44.245Z,69.30
2018-07-25T00:34:12.987Z,69.60
2018-07-25T00:36:41.407Z,69.40
2018-07-25T00:39:10.146Z,69.10
2018-07-25T00:41:38.986Z,69.60
2018-07-25T00:44:07.409Z,69.50
2018-07-25T00:46:35.872Z,69.60
2018-07-25T00:49:04.386Z,69.50
2018-07-25T00:51:32.744Z,70.40
2018-07-25T00:54:01.209Z,70.20
2018-07-25T00:56:29.667Z,70.00
2018-07-25T00:58:58.138Z,70.00
2018-07-25T01:01:26.530Z,69.90
2018-07-25T01:06:23.100Z,69.50
2018-07-25T01:08:51.749Z,70.10
2018-07-25T01:11:20.113Z,71.10
2018-07-25T01:13:48.503Z,70.30
2018-07-25T01:16:16.963Z,70.50
2018-07-25T01:18:45.413Z,71.20
2018-07-25T01:21:13.837Z,70.70
2018-07-25T01:23:42.269Z,70.90
2018-07-25T01:26:10.993Z,71.60
2018-07-25T01:28:39.363Z,70.80
2018-07-25T01:31:08.353Z,70.60
2018-07-25T01:33:36.776Z,71.30
2018-07-25T01:36:05.189Z,70.10
2018-07-25T01:38:33.710Z,71.00
2018-07-25T01:41:02.533Z,70.70
2018-07-25T01:43:30.975Z,70.50
2018-07-25T01:45:59.404Z,70.40
2018-07-25T01:48:27.835Z,70.40
2018-07-25T01:50:56.185Z,70.70
2018-07-25T01:53:24.637Z,71.00
2018-07-25T01:55:53.070Z,71.00
2018-07-25T01:58:22.389Z,71.20
2018-07-25T02:00:51.378Z,70.80
2018-07-25T02:03:20.103Z,70.90
2018-07-25T02:05:48.485Z,71.10
2018-07-25T02:08:17.095Z,71.30
2018-07-25T02:10:46.449Z,71.60
2018-07-25T02:13:16.894Z,71.20
2018-07-25T02:15:46.282Z,71.20
2018-07-25T02:18:14.703Z,72.20
2018-07-25T02:20:43.142Z,72.20
2018-07-25T02:23:17.339Z,71.60
2018-07-25T02:25:45.774Z,71.70
2018-07-25T02:28:14.303Z,72.40
2018-07-25T02:30:42.720Z,72.40
2018-07-25T02:33:11.158Z,71.70
2018-07-25T02:35:39.559Z,72.20
2018-07-25T02:38:07.958Z,72.40
2018-07-25T02:40:36.309Z,72.30
2018-07-25T02:43:04.770Z,72.80
2018-07-25T02:45:48.836Z,72.20
2018-07-25T02:48:17.210Z,72.10
2018-07-25T02:50:46.683Z,72.30
2018-07-25T02:53:15.043Z,72.50
2018-07-25T02:55:43.605Z,72.70
2018-07-25T02:58:12.008Z,72.50
2018-07-25T03:00:41.555Z,72.40
2018-07-25T03:03:10.552Z,72.40
2018-07-25T03:05:39.100Z,72.50
2018-07-25T03:08:07.510Z,72.70
2018-07-25T03:13:20.104Z,72.60
2018-07-25T03:15:56.864Z,72.60
2018-07-25T03:18:25.303Z,72.50
2018-07-25T03:20:54.694Z,73.10
2018-07-25T03:23:23.655Z,73.10
2018-07-25T03:25:53.085Z,73.60
2018-07-25T03:28:21.533Z,73.50
2018-07-25T03:30:50.979Z,72.80
2018-07-25T03:33:19.771Z,72.50
2018-07-25T03:35:48.271Z,73.50
2018-07-25T03:38:16.685Z,73.00
2018-07-25T03:40:46.602Z,73.00
2018-07-25T03:43:15.039Z,73.00
2018-07-25T03:45:43.676Z,72.70
2018-07-25T03:48:12.107Z,72.40
2018-07-25T03:50:41.506Z,73.00
2018-07-25T03:53:10.228Z,73.10
2018-07-25T03:55:38.706Z,73.00
2018-07-25T03:58:07.135Z,73.10
2018-07-25T04:00:36.614Z,72.90
2018-07-25T04:03:05.518Z,73.00
2018-07-25T04:05:34.065Z,73.40
2018-07-25T04:08:02.979Z,73.10
2018-07-25T04:10:31.431Z,72.90
2018-07-25T04:12:59.843Z,72.60
2018-07-25T04:15:28.530Z,72.60
2018-07-25T04:17:56.921Z,72.80
2018-07-25T04:20:25.456Z,73.00
2018-07-25T04:22:53.811Z,73.30
2018-07-25T04:25:23.341Z,73.50
2018-07-25T04:27:52.072Z,73.60
2018-07-25T04:30:21.451Z,74.00
2018-07-25T04:32:49.835Z,73.90
2018-07-25T04:35:18.323Z,74.20
2018-07-25T04:37:46.750Z,74.30
2018-07-25T04:40:15.153Z,74.60
2018-07-25T04:42:43.632Z,74.90
2018-07-25T04:45:12.583Z,75.10
2018-07-25T04:47:40.994Z,75.10
2018-07-25T04:50:09.738Z,75.30
2018-07-25T04:52:38.339Z,75.40
2018-07-25T04:55:06.730Z,75.80
2018-07-25T04:57:35.442Z,76.00
2018-07-25T05:00:04.006Z,76.20
2018-07-25T05:02:32.465Z,77.10
2018-07-25T05:05:00.933Z,76.60
2018-07-25T05:07:29.384Z,77.10
2018-07-25T05:09:57.919Z,77.10
2018-07-25T05:12:26.403Z,77.20
2018-07-25T05:14:55.052Z,77.70
2018-07-25T05:17:24.622Z,77.50
2018-07-25T05:19:53.893Z,76.40
2018-07-25T05:22:22.665Z,76.40
2018-07-25T05:24:51.664Z,77.70
2018-07-25T05:27:20.077Z,79.70
2018-07-25T05:32:16.639Z,78.00
2018-07-25T05:34:45.111Z,82.90
2018-07-25T05:37:13.596Z,83.80
2018-07-25T05:39:42.110Z,83.00
2018-07-25T05:42:10.486Z,83.20
2018-07-25T05:44:38.988Z,82.80
2018-07-25T05:47:07.850Z,78.00
2018-07-25T05:49:36.338Z,81.20
2018-07-25T05:52:04.814Z,78.40
2018-07-25T05:54:33.276Z,84.30
2018-07-25T05:57:01.685Z,81.10
2018-07-25T05:59:30.102Z,79.80
2018-07-25T06:01:58.854Z,80.80
2018-07-25T06:04:27.654Z,78.60
2018-07-25T06:06:56.193Z,80.90
2018-07-25T06:09:24.797Z,80.90
2018-07-25T06:11:53.199Z,80.20
2018-07-25T06:14:22.570Z,79.40
2018-07-25T06:16:51.500Z,78.70
2018-07-25T06:19:20.061Z,78.80
2018-07-25T06:21:48.418Z,77.10
2018-07-25T06:24:16.872Z,75.30
2018-07-25T06:26:45.244Z,76.30
2018-07-25T06:29:13.733Z,77.30
2018-07-25T06:31:42.192Z,77.20
2018-07-25T06:34:10.621Z,79.40
2018-07-25T06:36:39.018Z,80.60
2018-07-25T06:39:10.164Z,79.00
2018-07-25T06:41:38.663Z,77.70
2018-07-25T06:44:07.516Z,78.40
2018-07-25T06:46:36.402Z,77.80
2018-07-25T06:49:05.376Z,77.70
2018-07-25T06:51:33.818Z,77.80
2018-07-25T06:54:02.710Z,77.80
2018-07-25T06:56:31.670Z,78.00
2018-07-25T06:59:00.090Z,78.60
2018-07-25T07:01:29.105Z,76.20
2018-07-25T07:03:57.515Z,74.60
2018-07-25T07:06:25.901Z,73.50
2018-07-25T07:11:23.190Z,72.40
2018-07-25T07:13:52.534Z,70.80
2018-07-25T07:16:21.596Z,71.20
2018-07-25T07:18:50.172Z,71.80
2018-07-25T07:21:18.553Z,70.40
2018-07-25T07:23:47.056Z,71.60
2018-07-25T07:26:15.470Z,69.70
2018-07-25T07:28:43.891Z,71.10
2018-07-25T07:31:12.323Z,70.10
2018-07-25T07:33:40.759Z,70.60
2018-07-25T07:36:09.191Z,71.00
2018-07-25T07:38:37.768Z,71.20
2018-07-25T07:41:06.165Z,72.00
2018-07-25T07:43:34.689Z,72.20
2018-07-25T07:46:03.389Z,72.10
2018-07-25T07:48:31.828Z,72.80
2018-07-25T07:51:00.250Z,72.40
2018-07-25T07:53:28.711Z,72.30
2018-07-25T07:55:57.551Z,72.70
2018-07-25T07:58:26.004Z,72.70
2018-07-25T08:00:54.473Z,72.30
2018-07-25T08:03:23.562Z,73.20
2018-07-25T08:05:53.412Z,72.10
2018-07-25T08:08:23.145Z,72.90
2018-07-25T08:10:51.781Z,73.90
2018-07-25T08:13:20.176Z,72.60
2018-07-25T08:15:48.524Z,71.90
2018-07-25T08:18:16.985Z,73.00
2018-07-25T08:20:45.390Z,71.70
2018-07-25T08:23:30.583Z,71.60
2018-07-25T08:25:59.030Z,70.20
2018-07-25T08:28:27.406Z,69.50
2018-07-25T08:30:55.829Z,69.10
2018-07-25T08:33:24.279Z,68.80
2018-07-25T08:38:42.422Z,67.60
2018-07-25T08:41:10.910Z,69.10
2018-07-25T08:43:40.865Z,70.30
2018-07-25T08:46:10.412Z,68.30
2018-07-25T08:48:39.401Z,68.80
2018-07-25T08:51:07.803Z,67.70
2018-07-25T08:53:36.658Z,67.20
2018-07-25T08:56:05.310Z,66.80
2018-07-25T08:58:33.818Z,67.60
2018-07-25T09:01:02.175Z,68.00
2018-07-25T09:03:31.028Z,68.90
2018-07-25T09:08:27.604Z,70.50
2018-07-25T09:10:56.052Z,69.50
2018-07-25T09:13:24.548Z,71.20
2018-07-25T09:18:21.256Z,70.20
2018-07-25T09:20:49.687Z,70.00
2018-07-25T09:23:18.051Z,69.50
2018-07-25T09:25:46.448Z,69.80
2018-07-25T09:28:14.941Z,68.30
2018-07-25T09:30:43.531Z,68.30
2018-07-25T09:33:12.000Z,69.10
2018-07-25T09:35:40.621Z,64.50
2018-07-25T09:38:09.243Z,65.90
2018-07-25T09:40:37.865Z,65.80
2018-07-25T09:43:06.891Z,67.30
2018-07-25T09:45:35.817Z,66.60
2018-07-25T09:48:04.495Z,66.60
2018-07-25T09:50:33.107Z,66.60
2018-07-25T09:53:01.828Z,66.70
2018-07-25T09:55:30.862Z,65.60
2018-07-25T09:58:00.212Z,65.20
2018-07-25T10:00:34.180Z,60.60
2018-07-25T10:03:03.771Z,62.70
2018-07-25T10:05:32.458Z,62.80
2018-07-25T10:08:01.690Z,60.80
2018-07-25T11:32:29.564Z,60.10
2018-07-25T11:34:58.131Z,53.70
2018-07-25T11:37:26.569Z,55.90
2018-07-25T11:39:55.139Z,54.60
2018-07-25T11:42:23.822Z,55.50
2018-07-25T11:44:52.359Z,56.60
2018-07-25T11:47:20.817Z,55.20
2018-07-25T11:49:49.289Z,54.00
2018-07-25T11:52:17.705Z,54.40
2018-07-25T11:54:46.167Z,54.60
2018-07-25T11:57:14.547Z,55.90
2018-07-25T11:59:43.410Z,53.50
2018-07-25T12:02:11.865Z,55.00
2018-07-25T12:04:40.380Z,54.20
2018-07-25T12:07:08.739Z,54.40
2018-07-25T12:09:37.410Z,56.70
2018-07-25T12:12:06.020Z,53.40
2018-07-25T12:14:34.663Z,53.90
2018-07-25T12:17:03.042Z,56.60
2018-07-25T12:19:46.885Z,57.40
2018-07-25T12:22:15.529Z,56.20
2018-07-25T12:24:44.130Z,56.30
2018-07-25T12:29:41.182Z,56.30
2018-07-25T12:32:09.876Z,56.70
2018-07-25T12:34:39.178Z,57.00
2018-07-25T12:37:07.804Z,54.40
2018-07-25T12:39:36.451Z,52.00
2018-07-25T12:42:05.101Z,52.80
2018-07-25T12:44:33.714Z,55.30
2018-07-25T12:47:02.395Z,55.00
2018-07-25T12:49:31.949Z,53.20
2018-07-25T12:52:01.435Z,54.00
2018-07-25T12:54:30.359Z,53.70
2018-07-25T12:56:58.941Z,55.10
2018-07-25T12:59:27.873Z,55.10
2018-07-25T13:01:56.533Z,55.90
2018-07-25T13:04:25.530Z,54.70
2018-07-25T13:06:54.188Z,54.20
2018-07-25T13:09:22.854Z,54.20
2018-07-25T13:11:51.454Z,53.60
2018-07-25T13:14:20.187Z,52.90
2018-07-25T13:16:49.160Z,53.90
2018-07-25T13:19:17.859Z,53.10
2018-07-25T13:21:46.449Z,52.80
2018-07-25T13:24:15.176Z,52.20
2018-07-25T13:26:43.818Z,50.00
2018-07-25T13:29:12.879Z,52.70
2018-07-25T13:31:41.529Z,52.00
2018-07-25T13:34:10.145Z,53.00
2018-07-25T13:36:39.130Z,52.90
2018-07-25T13:39:08.706Z,53.00
2018-07-25T13:41:37.326Z,52.50
2018-07-25T13:44:06.373Z,52.00
2018-07-25T13:46:35.119Z,52.20
2018-07-25T13:49:04.169Z,50.50
2018-07-25T13:51:32.829Z,48.30
2018-07-25T13:54:02.192Z,51.20
2018-07-25T13:56:31.420Z,51.10
2018-07-25T13:59:00.649Z,49.30
2018-07-25T14:01:29.263Z,49.90
2018-07-25T14:03:57.839Z,51.40
2018-07-25T14:06:26.410Z,50.20
2018-07-25T14:08:55.006Z,51.70
2018-07-25T14:11:23.670Z,50.00
2018-07-25T14:13:52.247Z,51.00
2018-07-25T14:16:21.176Z,49.00
2018-07-25T14:18:49.869Z,49.80
2018-07-25T14:21:18.516Z,49.90
2018-07-25T14:23:47.239Z,49.40
2018-07-25T14:26:15.716Z,47.90
2018-07-25T14:28:44.312Z,50.50
2018-07-25T14:31:12.852Z,50.60
2018-07-25T14:33:41.534Z,49.50
2018-07-25T14:36:10.189Z,50.10
2018-07-25T14:38:38.862Z,49.80
2018-07-25T14:41:07.436Z,50.00
2018-07-25T14:43:36.128Z,50.50
2018-07-25T14:46:05.103Z,49.60
2018-07-25T14:48:33.786Z,48.90
2018-07-25T14:51:02.948Z,51.00
2018-07-25T14:53:32.141Z,50.80
2018-07-25T14:56:00.986Z,46.70
2018-07-25T14:58:29.645Z,48.50
2018-07-25T15:00:58.376Z,50.00
2018-07-25T15:03:26.959Z,47.10
2018-07-25T15:05:55.543Z,49.20
2018-07-25T15:08:24.427Z,50.40
2018-07-25T15:10:53.370Z,48.70
2018-07-25T15:13:21.956Z,46.50
2018-07-25T15:15:50.660Z,48.80
2018-07-25T15:18:19.287Z,48.70
2018-07-25T15:20:47.947Z,48.60
2018-07-25T15:23:28.102Z,47.90
2018-07-25T15:25:56.617Z,46.60
2018-07-25T15:28:25.637Z,46.90
2018-07-25T15:31:57.317Z,48.20
2018-07-25T15:34:25.954Z,47.60
2018-07-25T15:36:55.083Z,44.90
2018-07-25T15:39:24.814Z,44.50
2018-07-25T15:41:54.527Z,45.80
2018-07-25T15:44:24.229Z,46.20
2018-07-25T15:46:52.908Z,45.50
2018-07-25T15:49:21.899Z,44.40
2018-07-25T15:51:50.631Z,46.20
2018-07-25T15:54:19.185Z,48.00
2018-07-25T15:56:47.875Z,48.80
2018-07-25T15:59:16.595Z,49.00
2018-07-25T16:01:45.400Z,47.10
2018-07-25T16:04:14.319Z,49.40
2018-07-25T16:06:42.902Z,49.60
2018-07-25T16:09:12.547Z,48.10
2018-07-25T16:14:10.232Z,47.80
2018-07-25T16:16:38.846Z,48.80
2018-07-25T16:19:07.820Z,49.60
2018-07-25T16:21:36.532Z,50.40
2018-07-25T16:24:05.315Z,50.90
2018-07-25T16:26:34.019Z,51.60
2018-07-25T16:29:03.589Z,51.00
2018-07-25T16:31:32.999Z,50.30
2018-07-25T16:34:02.040Z,51.30
2018-07-25T16:36:30.643Z,50.60
2018-07-25T16:38:59.304Z,50.80
2018-07-25T16:41:28.011Z,51.80
2018-07-25T16:43:57.146Z,50.40
2018-07-25T16:46:25.693Z,51.30
2018-07-25T16:48:54.461Z,50.80
2018-07-25T16:51:23.058Z,49.40
2018-07-25T16:53:51.764Z,50.90
2018-07-25T16:56:20.394Z,51.60
2018-07-25T16:58:49.033Z,52.50
2018-07-25T17:01:17.925Z,51.70
2018-07-25T17:03:46.620Z,51.60
2018-07-25T17:06:15.574Z,53.10
2018-07-25T17:08:44.257Z,52.30
2018-07-25T17:11:12.830Z,51.80
2018-07-25T17:13:41.473Z,51.80
2018-07-25T17:16:10.366Z,51.60
2018-07-25T17:18:38.986Z,52.10
2018-07-25T17:21:07.593Z,52.10
2018-07-25T17:23:36.363Z,51.90
2018-07-25T17:26:04.959Z,52.20
2018-07-25T17:28:34.395Z,51.40
2018-07-25T17:31:03.831Z,52.30
2018-07-25T17:33:33.303Z,52.50
2018-07-25T17:36:02.262Z,52.50
2018-07-25T17:38:31.453Z,52.20
2018-07-25T17:41:00.110Z,52.60
2018-07-25T17:43:28.760Z,52.70
2018-07-25T17:45:57.337Z,53.90
2018-07-25T17:48:26.002Z,53.90
2018-07-25T17:50:54.612Z,55.20
2018-07-25T17:53:23.503Z,55.80
2018-07-25T17:55:52.062Z,56.40
2018-07-25T17:58:21.089Z,56.20
2018-07-25T18:00:50.317Z,55.30
2018-07-25T18:03:19.006Z,56.90
2018-07-25T18:05:47.970Z,57.70
2018-07-25T18:08:18.275Z,58.10
2018-07-25T18:10:46.899Z,58.50
2018-07-25T18:13:20.954Z,57.60
2018-07-25T18:15:49.625Z,58.40
2018-07-25T18:18:18.257Z,58.60
2018-07-25T18:20:46.888Z,58.80
2018-07-25T18:23:15.653Z,58.60
2018-07-25T18:25:44.333Z,58.60
2018-07-25T18:28:12.952Z,58.80
2018-07-25T18:30:41.647Z,57.90
2018-07-25T18:33:10.195Z,58.00
2018-07-25T18:35:38.924Z,57.50
2018-07-25T18:38:07.583Z,57.80
2018-07-25T18:40:36.296Z,57.80
2018-07-25T18:43:04.811Z,58.10
2018-07-25T18:45:33.487Z,57.80
2018-07-25T18:48:02.541Z,57.30
2018-07-25T18:50:31.185Z,57.60
2018-07-25T18:52:59.836Z,57.50
2018-07-25T18:55:28.552Z,57.50
2018-07-25T18:57:57.217Z,57.30
2018-07-25T19:00:26.024Z,57.30
2018-07-25T19:02:54.379Z,56.70
2018-07-25T19:05:28.262Z,56.60
2018-07-25T19:07:56.667Z,56.90
2018-07-25T19:10:25.901Z,56.90
2018-07-25T19:12:55.120Z,56.90
2018-07-25T19:15:29.043Z,57.30
2018-07-25T19:17:57.504Z,56.80
2018-07-25T19:20:25.956Z,57.10
2018-07-25T19:22:54.367Z,57.60
2018-07-25T19:25:23.038Z,59.20
2018-07-25T19:27:51.794Z,59.00
2018-07-25T19:30:20.236Z,58.70
2018-07-25T19:32:48.855Z,59.80
2018-07-25T19:35:17.338Z,59.70
2018-07-25T19:37:45.676Z,60.30
2018-07-25T19:40:14.180Z,61.20
2018-07-25T19:42:42.636Z,60.80
2018-07-25T19:45:11.066Z,60.30
2018-07-25T19:47:39.443Z,60.90
2018-07-25T19:50:07.920Z,61.60
2018-07-25T19:52:36.331Z,60.30
2018-07-25T19:55:05.203Z,60.20
2018-07-25T19:57:34.228Z,60.40
2018-07-25T20:00:03.085Z,60.50
2018-07-25T20:02:31.459Z,60.50
2018-07-25T20:04:59.922Z,61.30
2018-07-25T20:07:28.401Z,61.40
2018-07-25T20:09:57.119Z,61.90
2018-07-25T20:12:25.536Z,61.70
2018-07-25T20:14:59.250Z,62.20
2018-07-25T20:17:27.680Z,61.90
2018-07-25T20:19:56.133Z,62.90
2018-07-25T20:22:24.613Z,62.20
2018-07-25T20:24:53.344Z,62.50
2018-07-25T20:27:21.733Z,62.50
2018-07-25T20:29:50.180Z,62.10
2018-07-25T20:32:18.916Z,63.50
2018-07-25T20:34:47.377Z,63.00
2018-07-25T20:37:15.727Z,63.20
2018-07-25T20:39:44.299Z,63.80
2018-07-25T20:42:12.765Z,64.20
2018-07-25T20:44:41.417Z,64.60
2018-07-25T20:47:09.836Z,64.90
2018-07-25T20:49:38.202Z,64.20
2018-07-25T20:52:06.737Z,64.20
2018-07-25T20:54:35.208Z,64.50
2018-07-25T20:57:04.203Z,65.10
2018-07-25T20:59:33.042Z,65.20
2018-07-25T21:02:01.451Z,64.00
2018-07-25T21:04:29.991Z,64.40
2018-07-25T21:06:58.693Z,65.10
2018-07-25T21:09:27.168Z,64.30
2018-07-25T21:11:55.658Z,64.50
2018-07-25T21:14:24.056Z,64.60
2018-07-25T21:16:52.445Z,65.50
2018-07-25T21:19:20.915Z,64.40
2018-07-25T21:21:49.430Z,64.40
2018-07-25T21:24:18.168Z,65.00
2018-07-25T21:26:46.608Z,64.80
2018-07-25T21:29:15.083Z,65.80
2018-07-25T21:31:43.456Z,65.40
2018-07-25T21:34:11.940Z,65.70
2018-07-25T21:36:40.319Z,65.60
2018-07-25T21:39:11.057Z,65.50
2018-07-25T21:41:39.452Z,65.70
2018-07-25T21:44:08.020Z,66.10
2018-07-25T21:46:36.448Z,65.70
2018-07-25T21:49:05.844Z,67.10
2018-07-25T21:51:34.935Z,66.30
2018-07-25T21:56:32.029Z,66.00
2018-07-25T21:59:00.491Z,65.60
2018-07-25T22:01:28.834Z,66.10
2018-07-25T22:03:57.612Z,65.90
2018-07-25T22:06:26.096Z,65.90
2018-07-25T22:08:54.560Z,66.00
2018-07-25T22:11:23.391Z,66.40
2018-07-25T22:13:55.385Z,66.40
2018-07-25T22:16:24.732Z,66.90
2018-07-25T22:18:53.287Z,67.50
2018-07-25T22:21:21.689Z,67.40
2018-07-25T22:23:50.133Z,67.10
2018-07-25T22:26:18.560Z,67.00
2018-07-25T22:28:47.104Z,67.40
2018-07-25T22:31:15.598Z,67.90
2018-07-25T22:33:44.216Z,67.70
2018-07-25T22:36:12.534Z,67.90
2018-07-25T22:38:40.968Z,67.80
2018-07-25T22:41:09.378Z,68.30
2018-07-25T22:43:37.819Z,67.90
2018-07-25T22:46:06.234Z,68.50
2018-07-25T22:48:35.180Z,68.50
2018-07-25T22:51:04.395Z,68.10
2018-07-25T22:53:33.381Z,67.90
2018-07-25T22:56:01.844Z,67.70
2018-07-25T22:58:30.380Z,68.40
2018-07-25T23:00:58.939Z,68.60
2018-07-25T23:03:27.428Z,68.80
2018-07-25T23:05:55.879Z,68.80
2018-07-25T23:08:24.386Z,68.80
2018-07-25T23:10:52.787Z,68.60
2018-07-25T23:13:21.880Z,68.80
2018-07-25T23:15:50.350Z,68.90
2018-07-25T23:18:18.811Z,69.20
2018-07-25T23:20:47.208Z,69.20
2018-07-25T23:23:15.630Z,69.00
2018-07-25T23:25:44.013Z,69.10
2018-07-25T23:28:12.566Z,69.30
2018-07-25T23:30:40.978Z,69.30
2018-07-25T23:33:09.498Z,69.20
2018-07-25T23:35:37.880Z,69.40
2018-07-25T23:38:06.248Z,69.70
2018-07-25T23:40:35.519Z,69.80
2018-07-25T23:43:04.534Z,69.70
2018-07-25T23:45:33.719Z,69.50
2018-07-25T23:48:02.141Z,69.90
2018-07-25T23:50:30.533Z,69.70
2018-07-25T23:52:58.925Z,69.80
2018-07-25T23:57:55.659Z,70.10
